createdAt,value
2022-12-14T00:01:28.817Z,2.85
2022-12-14T00:05:31.227Z,2.90
2022-12-14T00:09:33.521Z,3.20
2022-12-14T00:13:36.241Z,3.53
2022-12-14T00:17:38.389Z,3.90
2022-12-14T00:21:40.473Z,5.18
2022-12-14T00:25:59.699Z,4.47
2022-12-14T00:30:21.496Z,5.18
2022-12-14T00:34:23.686Z,4.95
2022-12-14T00:38:26.598Z,4.93
2022-12-14T00:42:29.752Z,5.20
2022-12-14T00:46:31.973Z,5.13
2022-12-14T00:50:34.170Z,5.22
2022-12-14T00:54:36.286Z,4.60
2022-12-14T00:58:39.881Z,4.18
2022-12-14T01:02:42.034Z,3.40
2022-12-14T01:06:45.267Z,3.80
2022-12-14T01:10:47.456Z,4.47
2022-12-14T01:14:49.561Z,4.45
2022-12-14T01:18:51.642Z,5.07
2022-12-14T01:22:55.986Z,4.95
2022-12-14T01:26:58.184Z,4.25
2022-12-14T01:31:00.409Z,4.32
2022-12-14T01:35:02.561Z,4.38
2022-12-14T01:39:09.661Z,4.03
2022-12-14T01:43:15.510Z,4.50
2022-12-14T01:47:42.977Z,4.32
2022-12-14T01:51:52.505Z,4.50
2022-12-14T01:55:56.755Z,3.75
2022-12-14T02:00:06.720Z,3.97
2022-12-14T02:04:12.428Z,3.92
2022-12-14T02:08:17.198Z,3.63
2022-12-14T02:12:26.367Z,4.25
2022-12-14T02:16:28.955Z,4.30
2022-12-14T02:20:40.263Z,4.72
2022-12-14T02:25:08.728Z,4.75
2022-12-14T02:29:13.882Z,4.65
2022-12-14T02:33:26.864Z,4.60
2022-12-14T02:37:55.043Z,4.55
2022-12-14T02:43:02.284Z,4.50
2022-12-14T02:47:16.298Z,3.88
2022-12-14T02:51:32.968Z,3.83
2022-12-14T02:55:54.953Z,4.65
2022-12-14T03:00:06.472Z,4.13
2022-12-14T03:04:08.876Z,4.40
2022-12-14T03:08:16.661Z,4.30
2022-12-14T03:12:21.324Z,4.30
2022-12-14T03:20:39.524Z,4.75
2022-12-14T03:24:44.909Z,4.70
2022-12-14T03:28:51.971Z,4.93
2022-12-14T03:32:59.036Z,5.38
2022-12-14T03:37:16.214Z,5.38
2022-12-14T03:41:31.919Z,4.43
2022-12-14T03:46:01.627Z,4.00
2022-12-14T03:50:09.116Z,4.75
2022-12-14T03:54:27.587Z,3.97
2022-12-14T03:58:53.809Z,5.10
2022-12-14T04:03:10.728Z,3.60
2022-12-14T04:07:54.393Z,4.38
2022-12-14T04:12:26.417Z,4.68
2022-12-14T04:16:55.565Z,4.45
2022-12-14T04:21:39.680Z,4.78
2022-12-14T04:26:05.267Z,4.18
2022-12-14T04:30:10.380Z,4.65
2022-12-14T04:34:16.845Z,5.72
2022-12-14T04:38:27.512Z,14.73
2022-12-14T04:42:35.876Z,25.25
2022-12-14T04:46:41.117Z,5.18
2022-12-14T04:50:47.897Z,5.18
2022-12-14T04:55:13.545Z,4.60
2022-12-14T04:59:20.064Z,4.90
2022-12-14T05:03:30.473Z,4.90
2022-12-14T05:07:51.991Z,4.85
2022-12-14T05:12:13.401Z,4.45
2022-12-14T05:16:22.080Z,3.78
2022-12-14T05:20:44.093Z,5.07
2022-12-14T05:24:50.879Z,4.40
2022-12-14T05:28:58.006Z,4.68
2022-12-14T05:33:08.372Z,5.07
2022-12-14T05:37:18.681Z,4.25
2022-12-14T05:41:20.899Z,4.07
2022-12-14T05:45:23.005Z,4.32
2022-12-14T05:49:31.893Z,4.63
2022-12-14T05:53:42.989Z,4.50
2022-12-14T05:57:45.155Z,4.75
2022-12-14T06:01:50.314Z,4.65
2022-12-14T06:05:52.825Z,3.75
2022-12-14T06:09:56.303Z,4.68
2022-12-14T06:13:58.641Z,4.25
2022-12-14T06:18:01.767Z,4.07
2022-12-14T06:22:11.338Z,3.97
2022-12-14T06:26:27.368Z,3.95
2022-12-14T06:30:29.494Z,4.03
2022-12-14T06:34:35.365Z,3.42
2022-12-14T06:38:40.929Z,3.15
2022-12-14T06:42:43.127Z,3.28
2022-12-14T06:46:45.576Z,3.28
2022-12-14T06:50:47.975Z,3.45
2022-12-14T06:54:50.142Z,4.22
2022-12-14T06:58:54.479Z,2.65
2022-12-14T07:02:56.814Z,2.00
2022-12-14T07:06:59.137Z,1.88
2022-12-14T07:11:03.440Z,2.90
2022-12-14T07:15:06.186Z,3.92
2022-12-14T07:19:10.920Z,3.47
2022-12-14T07:23:13.021Z,4.10
2022-12-14T07:27:18.605Z,3.63
2022-12-14T07:31:23.513Z,3.50
2022-12-14T07:35:25.790Z,0.50
2022-12-14T07:39:28.168Z,0.50
2022-12-14T07:43:30.614Z,0.50
2022-12-14T07:47:33.060Z,0.40
2022-12-14T07:51:37.718Z,0.10
2022-12-14T07:59:41.896Z,0.20
2022-12-14T08:03:47.091Z,0.40
2022-12-14T08:07:49.199Z,1.30
2022-12-14T08:11:51.287Z,1.30
2022-12-14T08:15:53.664Z,1.90
2022-12-14T08:19:56.101Z,2.40
2022-12-14T08:23:58.967Z,3.28
2022-12-14T08:28:01.158Z,3.40
2022-12-14T08:32:03.352Z,3.72
2022-12-14T08:36:20.301Z,3.42
2022-12-14T08:40:22.288Z,3.58
2022-12-14T08:44:25.046Z,3.08
2022-12-14T08:48:27.918Z,3.03
2022-12-14T08:52:30.090Z,3.33
2022-12-14T08:56:32.386Z,3.40
2022-12-14T09:00:34.824Z,2.72
2022-12-14T09:04:36.876Z,3.45
2022-12-14T09:08:39.157Z,2.63
2022-12-14T09:12:41.683Z,2.97
2022-12-14T09:16:43.787Z,2.60
2022-12-14T09:20:45.995Z,2.47
2022-12-14T09:24:52.141Z,2.70
2022-12-14T09:28:56.167Z,2.30
2022-12-14T09:32:58.282Z,2.55
2022-12-14T09:37:04.676Z,2.90
2022-12-14T09:41:20.455Z,2.83
2022-12-14T09:45:42.028Z,2.40
2022-12-14T09:50:07.299Z,1.90
2022-12-14T09:54:15.093Z,10.57
2022-12-14T09:58:23.319Z,9.45
2022-12-14T10:02:35.349Z,2.75
2022-12-14T10:06:48.270Z,2.80
2022-12-14T10:11:02.221Z,1.60
2022-12-14T10:15:28.057Z,1.87
2022-12-14T10:19:54.879Z,0.55
2022-12-14T10:24:02.683Z,0.88
2022-12-14T10:28:13.049Z,1.08
2022-12-14T10:32:25.868Z,0.85
2022-12-14T10:36:39.596Z,1.27
2022-12-14T10:40:49.650Z,1.27
2022-12-14T10:50:14.165Z,1.30
2022-12-14T10:54:38.738Z,1.52
2022-12-14T10:58:41.063Z,2.05
2022-12-14T11:02:50.112Z,1.30
2022-12-14T11:06:52.434Z,1.70
2022-12-14T11:11:19.001Z,1.25
2022-12-14T11:15:32.177Z,1.50
2022-12-14T11:19:34.355Z,1.20
2022-12-14T11:23:46.124Z,1.23
2022-12-14T11:27:49.937Z,1.70
2022-12-14T11:31:55.266Z,1.60
2022-12-14T11:35:57.484Z,1.20
2022-12-14T11:40:03.766Z,1.40
2022-12-14T11:44:15.641Z,1.35
2022-12-14T11:48:21.772Z,4.38
2022-12-14T11:52:39.198Z,1.50
2022-12-14T11:56:41.665Z,1.50
2022-12-14T12:00:49.102Z,1.35
2022-12-14T12:05:00.145Z,1.40
2022-12-14T12:09:10.498Z,3.03
2022-12-14T12:13:30.789Z,2.60
2022-12-14T12:17:42.339Z,0.63
2022-12-14T12:21:45.276Z,0.45
2022-12-14T12:25:51.410Z,0.40
2022-12-14T12:30:01.916Z,0.20
2022-12-14T12:34:13.585Z,0.13
2022-12-14T12:38:40.366Z,0.20
2022-12-14T12:42:50.231Z,0.20
2022-12-14T12:47:25.478Z,0.40
2022-12-14T12:51:39.201Z,0.20
2022-12-14T12:55:45.520Z,0.32
2022-12-14T12:59:51.959Z,0.10
2022-12-14T13:04:03.273Z,0.20
2022-12-14T13:08:13.482Z,0.30
2022-12-14T13:12:28.133Z,0.40
2022-12-14T13:16:39.139Z,0.40
2022-12-14T13:20:41.305Z,0.50
2022-12-14T13:24:48.141Z,0.40
2022-12-14T13:29:05.634Z,0.70
2022-12-14T13:33:21.079Z,0.60
2022-12-14T13:37:44.997Z,0.20
2022-12-14T13:41:56.484Z,0.80
2022-12-14T13:46:07.056Z,0.40
2022-12-14T13:50:39.763Z,0.30
2022-12-14T13:54:47.484Z,0.30
2022-12-14T13:58:52.343Z,0.40
2022-12-14T14:02:54.864Z,0.20
2022-12-14T14:07:22.742Z,0.28
2022-12-14T14:11:43.494Z,0.30
2022-12-14T14:20:42.537Z,0.40
2022-12-14T14:25:12.216Z,0.57
2022-12-14T14:29:26.229Z,0.28
2022-12-14T14:33:45.324Z,0.40
2022-12-14T14:38:02.975Z,0.10
2022-12-14T14:42:08.526Z,0.35
2022-12-14T14:46:13.573Z,0.30
2022-12-14T14:50:17.491Z,0.45
2022-12-14T14:54:54.071Z,0.50
2022-12-14T14:58:42.913Z,0.20
2022-12-14T15:02:46.046Z,0.60
2022-12-14T15:06:56.977Z,0.50
2022-12-14T15:11:03.753Z,1.40
2022-12-14T15:15:15.470Z,0.40
2022-12-14T15:19:33.669Z,0.50
2022-12-14T15:23:39.321Z,0.50
2022-12-14T15:27:41.925Z,1.17
2022-12-14T15:31:46.023Z,10.82
2022-12-14T15:35:49.457Z,4.15
2022-12-14T15:40:01.351Z,0.60
2022-12-14T15:44:03.754Z,0.90
2022-12-14T15:48:13.156Z,1.30
2022-12-14T15:52:16.535Z,0.82
2022-12-14T15:56:30.113Z,0.95
2022-12-14T16:00:33.406Z,0.70
2022-12-14T16:04:36.850Z,0.70
2022-12-14T16:08:55.949Z,0.60
2022-12-14T16:13:04.627Z,0.65
2022-12-14T16:17:06.762Z,0.70
2022-12-14T16:21:26.563Z,0.60
2022-12-14T16:25:32.240Z,0.80
2022-12-14T16:29:34.471Z,0.70
2022-12-14T16:33:39.371Z,0.50
2022-12-14T16:37:41.658Z,1.08
2022-12-14T16:41:55.381Z,3.83
2022-12-14T16:46:00.802Z,3.25
2022-12-14T16:50:40.046Z,3.38
2022-12-14T16:54:43.383Z,3.15
2022-12-14T16:59:06.923Z,3.28
2022-12-14T17:03:23.408Z,3.17
2022-12-14T17:07:28.235Z,3.80
2022-12-14T17:11:30.550Z,4.35
2022-12-14T17:15:35.194Z,6.65
2022-12-14T17:19:39.038Z,6.82
2022-12-14T17:23:43.657Z,8.20
2022-12-14T17:27:47.971Z,6.80
2022-12-14T17:31:55.595Z,8.90
2022-12-14T17:35:57.807Z,5.47
2022-12-14T17:40:00.042Z,6.70
2022-12-14T17:44:03.424Z,5.38
2022-12-14T17:48:06.157Z,3.70
2022-12-14T17:52:17.098Z,2.95
2022-12-14T17:56:20.925Z,5.07
2022-12-14T18:00:48.098Z,5.80
2022-12-14T18:04:50.189Z,4.97
2022-12-14T18:08:52.652Z,5.57
2022-12-14T18:12:55.959Z,5.63
2022-12-14T18:17:01.041Z,6.07
2022-12-14T18:21:04.201Z,5.25
2022-12-14T18:25:31.671Z,5.32
2022-12-14T18:29:33.794Z,5.75
2022-12-14T18:33:35.989Z,7.03
2022-12-14T18:37:38.168Z,5.07
2022-12-14T18:41:40.294Z,8.60
2022-12-14T18:45:42.343Z,13.10
2022-12-14T18:49:44.415Z,8.30
2022-12-14T18:53:46.561Z,6.78
2022-12-14T18:57:50.831Z,8.32
2022-12-14T19:01:53.358Z,36.58
2022-12-14T19:06:34.830Z,25.30
2022-12-14T19:10:29.986Z,11.43
2022-12-14T19:14:32.416Z,13.95
2022-12-14T19:18:36.559Z,10.00
2022-12-14T19:22:39.320Z,9.23
2022-12-14T19:26:41.758Z,10.75
2022-12-14T19:30:45.099Z,13.98
2022-12-14T19:34:47.183Z,19.70
2022-12-14T19:38:49.739Z,21.88
2022-12-14T19:42:51.895Z,19.08
2022-12-14T19:46:54.009Z,13.13
2022-12-14T19:50:56.091Z,20.30
2022-12-14T19:54:58.658Z,11.25
2022-12-14T19:59:03.632Z,8.18
2022-12-14T20:03:05.884Z,8.70
2022-12-14T20:07:08.713Z,7.75
2022-12-14T20:11:11.872Z,8.30
2022-12-14T20:15:14.206Z,8.07
2022-12-14T20:19:16.371Z,7.65
2022-12-14T20:23:21.883Z,7.53
2022-12-14T20:27:24.125Z,8.13
2022-12-14T20:31:26.373Z,7.72
2022-12-14T20:35:28.584Z,7.47
2022-12-14T20:39:30.730Z,9.30
2022-12-14T20:43:35.084Z,9.00
2022-12-14T20:47:37.548Z,11.95
2022-12-14T20:51:40.439Z,10.10
2022-12-14T20:55:42.575Z,8.73
2022-12-14T20:59:44.603Z,8.55
2022-12-14T21:03:47.705Z,9.23
2022-12-14T21:07:50.082Z,8.50
2022-12-14T21:12:12.458Z,8.13
2022-12-14T21:16:14.980Z,7.85
2022-12-14T21:20:17.395Z,8.07
2022-12-14T21:24:37.355Z,7.50
2022-12-14T21:28:42.248Z,8.10
2022-12-14T21:32:44.462Z,7.35
2022-12-14T21:36:47.381Z,7.20
2022-12-14T21:41:12.691Z,8.05
2022-12-14T21:45:14.912Z,8.45
2022-12-14T21:49:17.107Z,8.48
2022-12-14T21:53:19.263Z,9.73
2022-12-14T21:57:43.099Z,8.52
2022-12-14T22:01:56.446Z,9.68
2022-12-14T22:05:59.198Z,8.45
2022-12-14T22:10:02.077Z,7.63
2022-12-14T22:14:04.413Z,8.15
2022-12-14T22:18:06.718Z,7.80
2022-12-14T22:22:14.647Z,10.38
2022-12-14T22:26:17.592Z,11.00
2022-12-14T22:30:20.039Z,8.63
2022-12-14T22:34:23.598Z,8.38
2022-12-14T22:38:26.799Z,8.70
2022-12-14T22:42:29.236Z,9.57
2022-12-14T22:46:33.331Z,8.60
2022-12-14T22:50:35.517Z,9.15
2022-12-14T22:54:39.525Z,12.38
2022-12-14T22:58:46.067Z,11.32
2022-12-14T23:02:52.092Z,10.30
2022-12-14T23:06:55.737Z,13.73
2022-12-14T23:11:16.478Z,8.70
2022-12-14T23:15:37.191Z,10.55
2022-12-14T23:20:04.253Z,10.50
2022-12-14T23:24:25.918Z,10.07
2022-12-14T23:28:50.628Z,10.30
2022-12-14T23:33:11.172Z,8.83
2022-12-14T23:37:31.946Z,9.80
2022-12-14T23:41:52.616Z,10.00
2022-12-14T23:46:13.396Z,12.07
2022-12-14T23:50:34.105Z,12.90
2022-12-14T23:54:54.659Z,12.27
2022-12-14T23:59:18.654Z,12.23
